sensor_id;sensor_type;location;lat;lon;timestamp;pressure;altitude;pressure_sealevel;temperature;humidity
39823;BME280;25499;53.958;10.970;2023-07-13T05:19:01;101070.38;;;17.29;100.00
39823;BME280;25499;53.958;10.970;2023-07-13T05:21:29;101063.41;;;17.28;100.00
39823;BME280;25499;53.958;10.970;2023-07-13T05:23:56;101060.69;;;17.31;100.00
39823;BME280;25499;53.958;10.970;2023-07-13T05:26:22;101067.81;;;17.26;100.00
39823;BME280;25499;53.958;10.970;2023-07-13T05:28:49;101068.50;;;17.34;100.00
39823;BME280;25499;53.958;10.970;2023-07-13T05:31:16;101068.81;;;17.55;100.00
39823;BME280;25499;53.958;10.970;2023-07-13T05:33:43;101054.69;;;17.59;100.00
39823;BME280;25499;53.958;10.970;2023-07-13T05:36:12;101059.44;;;17.77;100.00
39823;BME280;25499;53.958;10.970;2023-07-13T05:38:39;101055.78;;;17.83;100.00
39823;BME280;25499;53.958;10.970;2023-07-13T05:41:06;101056.03;;;18.05;100.00
39823;BME280;25499;53.958;10.970;2023-07-13T05:43:33;101056.84;;;18.07;100.00
39823;BME280;25499;53.958;10.970;2023-07-13T05:46:00;101054.66;;;18.23;100.00
39823;BME280;25499;53.958;10.970;2023-07-13T05:48:27;101053.28;;;18.38;100.00
39823;BME280;25499;53.958;10.970;2023-07-13T05:50:54;101048.13;;;18.35;100.00
39823;BME280;25499;53.958;10.970;2023-07-13T05:53:22;101061.31;;;18.35;100.00
39823;BME280;25499;53.958;10.970;2023-07-13T10:00:56;100941.19;;;23.62;59.81
39823;BME280;25499;53.958;10.970;2023-07-13T10:03:27;100974.63;;;23.17;61.83
39823;BME280;25499;53.958;10.970;2023-07-13T10:09:09;100962.75;;;24.98;59.73
39823;BME280;25499;53.958;10.970;2023-07-13T10:11:36;100928.38;;;24.93;58.26
39823;BME280;25499;53.958;10.970;2023-07-13T10:14:10;100911.31;;;25.26;57.46
39823;BME280;25499;53.958;10.970;2023-07-13T10:16:42;100897.34;;;24.47;57.64
39823;BME280;25499;53.958;10.970;2023-07-13T10:19:13;100950.50;;;25.67;58.63
39823;BME280;25499;53.958;10.970;2023-07-13T10:21:50;100886.63;;;25.08;56.25
39823;BME280;25499;53.958;10.970;2023-07-13T10:24:22;100885.75;;;24.48;56.81
39823;BME280;25499;53.958;10.970;2023-07-13T10:26:54;100898.63;;;24.10;57.75
39823;BME280;25499;53.958;10.970;2023-07-13T10:29:25;100933.19;;;23.62;58.99
39823;BME280;25499;53.958;10.970;2023-07-13T10:31:55;100956.81;;;23.68;60.34
39823;BME280;25499;53.958;10.970;2023-07-13T10:34:24;100952.13;;;23.40;60.73
39823;BME280;25499;53.958;10.970;2023-07-13T10:36:53;100974.41;;;23.20;62.08
39823;BME280;25499;53.958;10.970;2023-07-13T10:39:26;100971.16;;;23.32;61.78
39823;BME280;25499;53.958;10.970;2023-07-13T10:41:59;100976.31;;;23.18;62.51
39823;BME280;25499;53.958;10.970;2023-07-13T10:44:31;100982.56;;;24.31;62.44
39823;BME280;25499;53.958;10.970;2023-07-13T10:47:03;100932.38;;;24.09;59.49
39823;BME280;25499;53.958;10.970;2023-07-13T10:49:36;100925.28;;;23.94;59.02
39823;BME280;25499;53.958;10.970;2023-07-13T10:52:05;100906.78;;;24.23;57.78
39823;BME280;25499;53.958;10.970;2023-07-13T10:54:34;100943.53;;;24.62;58.52
39823;BME280;25499;53.958;10.970;2023-07-13T10:57:18;100954.63;;;25.29;58.97
39823;BME280;25499;53.958;10.970;2023-07-13T11:03:00;100875.44;;;26.40;53.38
39823;BME280;25499;53.958;10.970;2023-07-13T11:05:32;100868.31;;;26.41;52.48
39823;BME280;25499;53.958;10.970;2023-07-13T11:08:16;100877.56;;;25.54;53.68
39823;BME280;25499;53.958;10.970;2023-07-13T11:10:49;100865.44;;;25.77;52.81
39823;BME280;25499;53.958;10.970;2023-07-13T11:16:13;100882.06;;;25.24;53.06
39823;BME280;25499;53.958;10.970;2023-07-13T11:18:44;100860.63;;;24.83;52.91
39823;BME280;25499;53.958;10.970;2023-07-13T11:21:16;100863.25;;;25.69;51.81
39823;BME280;25499;53.958;10.970;2023-07-13T11:23:44;100849.09;;;25.25;51.18
39823;BME280;25499;53.958;10.970;2023-07-13T11:26:50;100883.56;;;24.85;52.55
39823;BME280;25499;53.958;10.970;2023-07-13T11:29:33;100881.94;;;24.52;52.14
39823;BME280;25499;53.958;10.970;2023-07-13T11:32:01;100870.13;;;23.81;52.69
39823;BME280;25499;53.958;10.970;2023-07-13T11:34:48;100921.38;;;23.01;54.43
39823;BME280;25499;53.958;10.970;2023-07-13T11:37:17;100925.19;;;22.25;55.30
39823;BME280;25499;53.958;10.970;2023-07-13T11:39:46;100943.38;;;21.96;56.63
39823;BME280;25499;53.958;10.970;2023-07-13T11:42:16;100953.13;;;21.58;57.26
39823;BME280;25499;53.958;10.970;2023-07-13T11:44:47;100975.97;;;21.40;58.18
39823;BME280;25499;53.958;10.970;2023-07-13T11:47:17;101081.88;;;20.99;63.88
39823;BME280;25499;53.958;10.970;2023-07-13T11:49:50;101148.38;;;20.45;72.24
39823;BME280;25499;53.958;10.970;2023-07-13T11:52:20;101152.53;;;20.04;78.86
39823;BME280;25499;53.958;10.970;2023-07-13T11:54:48;101153.50;;;19.78;84.16
39823;BME280;25499;53.958;10.970;2023-07-13T11:57:24;101183.84;;;19.64;91.67
39823;BME280;25499;53.958;10.970;2023-07-13T11:59:54;101170.13;;;19.53;96.38
39823;BME280;25499;53.958;10.970;2023-07-13T12:02:29;101164.00;;;19.52;95.31
39823;BME280;25499;53.958;10.970;2023-07-13T12:04:59;101160.19;;;19.61;94.64
39823;BME280;25499;53.958;10.970;2023-07-13T12:07:29;101146.06;;;19.87;93.46
39823;BME280;25499;53.958;10.970;2023-07-13T12:10:00;101160.50;;;20.27;93.83
39823;BME280;25499;53.958;10.970;2023-07-13T12:12:28;101179.53;;;20.61;96.88
39823;BME280;25499;53.958;10.970;2023-07-13T12:14:56;101150.31;;;20.88;89.86
39823;BME280;25499;53.958;10.970;2023-07-13T12:17:24;101134.16;;;20.94;85.01
39823;BME280;25499;53.958;10.970;2023-07-13T12:19:52;101142.53;;;21.05;84.88
39823;BME280;25499;53.958;10.970;2023-07-13T12:22:21;101144.41;;;21.03;85.90
39823;BME280;25499;53.958;10.970;2023-07-13T12:24:51;101122.78;;;20.92;84.43
39823;BME280;25499;53.958;10.970;2023-07-13T12:27:20;101134.16;;;20.94;86.15
39823;BME280;25499;53.958;10.970;2023-07-13T12:29:50;101123.03;;;20.62;84.36
39823;BME280;25499;53.958;10.970;2023-07-13T12:32:19;101133.25;;;20.95;84.55
39823;BME280;25499;53.958;10.970;2023-07-13T12:34:54;101111.59;;;21.28;81.08
39823;BME280;25499;53.958;10.970;2023-07-13T12:37:24;101125.88;;;21.87;81.13
39823;BME280;25499;53.958;10.970;2023-07-13T12:39:51;101103.28;;;22.37;77.53
39823;BME280;25499;53.958;10.970;2023-07-13T12:42:21;101102.56;;;22.52;76.81
39823;BME280;25499;53.958;10.970;2023-07-13T12:44:53;101052.16;;;21.95;71.56
39823;BME280;25499;53.958;10.970;2023-07-13T12:47:20;101050.72;;;22.07;71.56
39823;BME280;25499;53.958;10.970;2023-07-13T12:49:49;101082.47;;;22.65;72.41
39823;BME280;25499;53.958;10.970;2023-07-13T12:52:21;101075.41;;;22.83;71.34
39823;BME280;25499;53.958;10.970;2023-07-13T12:54:57;101068.13;;;22.69;69.87
39823;BME280;25499;53.958;10.970;2023-07-13T12:57:25;101059.88;;;22.57;68.75
39823;BME280;25499;53.958;10.970;2023-07-13T12:59:53;101059.00;;;22.39;68.33
39823;BME280;25499;53.958;10.970;2023-07-13T13:02:29;101051.66;;;22.06;67.95
39823;BME280;25499;53.958;10.970;2023-07-13T13:04:57;101067.94;;;21.98;68.78
39823;BME280;25499;53.958;10.970;2023-07-13T13:07:26;101054.50;;;21.82;68.13
39823;BME280;25499;53.958;10.970;2023-07-13T13:09:53;101063.06;;;21.68;68.55
39823;BME280;25499;53.958;10.970;2023-07-13T13:12:22;101053.63;;;21.63;67.87
39823;BME280;25499;53.958;10.970;2023-07-13T13:14:51;101077.91;;;21.52;68.96
39823;BME280;25499;53.958;10.970;2023-07-13T13:17:20;101087.41;;;21.57;69.79
39823;BME280;25499;53.958;10.970;2023-07-13T13:19:50;101093.03;;;21.50;70.44
39823;BME280;25499;53.958;10.970;2023-07-13T13:22:18;101086.31;;;21.20;70.50
39823;BME280;25499;53.958;10.970;2023-07-13T13:24:45;101109.53;;;20.92;71.87
39823;BME280;25499;53.958;10.970;2023-07-13T13:27:15;101138.66;;;20.92;74.27
39823;BME280;25499;53.958;10.970;2023-07-13T13:29:45;101144.13;;;20.65;74.91
39823;BME280;25499;53.958;10.970;2023-07-13T13:32:13;101169.59;;;20.44;76.19
39823;BME280;25499;53.958;10.970;2023-07-13T13:34:41;101177.00;;;20.34;77.45
39823;BME280;25499;53.958;10.970;2023-07-13T13:37:19;101181.50;;;20.07;78.06
39823;BME280;25499;53.958;10.970;2023-07-13T13:39:47;101136.84;;;19.75;72.87
39823;BME280;25499;53.958;10.970;2023-07-13T13:42:16;101174.28;;;19.60;75.85
39823;BME280;25499;53.958;10.970;2023-07-13T13:44:44;101198.31;;;18.97;80.83
39823;BME280;25499;53.958;10.970;2023-07-13T13:47:26;101235.28;;;18.66;86.97
39823;BME280;25499;53.958;10.970;2023-07-13T13:49:54;101253.41;;;18.47;93.90
39823;BME280;25499;53.958;10.970;2023-07-13T13:52:21;101259.41;;;18.19;99.18
39823;BME280;25499;53.958;10.970;2023-07-13T13:54:48;101273.69;;;18.12;100.00
39823;BME280;25499;53.958;10.970;2023-07-13T13:57:15;101282.59;;;18.08;100.00
39823;BME280;25499;53.958;10.970;2023-07-13T13:59:42;101272.75;;;17.79;100.00
39823;BME280;25499;53.958;10.970;2023-07-13T14:02:22;101280.38;;;17.53;100.00
39823;BME280;25499;53.958;10.970;2023-07-13T14:04:53;101294.81;;;17.73;100.00
39823;BME280;25499;53.958;10.970;2023-07-13T14:07:21;101288.69;;;17.73;100.00
39823;BME280;25499;53.958;10.970;2023-07-13T14:09:48;101291.91;;;17.85;100.00
39823;BME280;25499;53.958;10.970;2023-07-13T14:12:14;101289.66;;;18.06;100.00
39823;BME280;25499;53.958;10.970;2023-07-13T14:14:41;101289.84;;;17.98;100.00
39823;BME280;25499;53.958;10.970;2023-07-13T14:17:21;101299.50;;;17.99;100.00
39823;BME280;25499;53.958;10.970;2023-07-13T14:19:49;101294.75;;;18.12;100.00
39823;BME280;25499;53.958;10.970;2023-07-13T14:29:16;101285.97;;;18.13;100.00
39823;BME280;25499;53.958;10.970;2023-07-13T14:31:44;101296.28;;;18.21;100.00
39823;BME280;25499;53.958;10.970;2023-07-13T14:34:12;101291.97;;;18.18;100.00
39823;BME280;25499;53.958;10.970;2023-07-13T14:36:41;101292.72;;;18.23;100.00
39823;BME280;25499;53.958;10.970;2023-07-13T14:39:13;101296.16;;;18.25;100.00
39823;BME280;25499;53.958;10.970;2023-07-13T14:41:40;101291.56;;;18.34;100.00
39823;BME280;25499;53.958;10.970;2023-07-13T14:44:12;101282.69;;;18.36;100.00
39823;BME280;25499;53.958;10.970;2023-07-13T14:46:41;101273.31;;;18.59;100.00
39823;BME280;25499;53.958;10.970;2023-07-13T14:49:24;101276.09;;;18.86;100.00
39823;BME280;25499;53.958;10.970;2023-07-13T14:52:16;101256.38;;;18.97;100.00
39823;BME280;25499;53.958;10.970;2023-07-13T14:54:48;101266.81;;;19.02;100.00
39823;BME280;25499;53.958;10.970;2023-07-13T14:57:22;101257.22;;;18.99;100.00
39823;BME280;25499;53.958;10.970;2023-07-13T15:00:07;101270.91;;;18.81;100.00
39823;BME280;25499;53.958;10.970;2023-07-13T15:02:43;101279.47;;;18.91;100.00
39823;BME280;25499;53.958;10.970;2023-07-13T15:05:20;101274.31;;;18.86;100.00
39823;BME280;25499;53.958;10.970;2023-07-13T15:07:51;101276.66;;;18.95;100.00
39823;BME280;25499;53.958;10.970;2023-07-13T15:10:22;101281.31;;;18.87;100.00
39823;BME280;25499;53.958;10.970;2023-07-13T15:12:52;101276.88;;;18.89;100.00
39823;BME280;25499;53.958;10.970;2023-07-13T15:15:24;101279.81;;;19.08;100.00
39823;BME280;25499;53.958;10.970;2023-07-13T15:17:54;101284.91;;;18.85;100.00
39823;BME280;25499;53.958;10.970;2023-07-13T15:20:28;101284.75;;;18.91;100.00
39823;BME280;25499;53.958;10.970;2023-07-13T15:23:01;101282.44;;;18.77;100.00
39823;BME280;25499;53.958;10.970;2023-07-13T15:25:30;101280.03;;;18.69;100.00
39823;BME280;25499;53.958;10.970;2023-07-13T15:28:01;101280.59;;;18.49;100.00
39823;BME280;25499;53.958;10.970;2023-07-13T15:30:39;101297.31;;;18.48;100.00
39823;BME280;25499;53.958;10.970;2023-07-13T15:33:19;101295.03;;;18.69;100.00
39823;BME280;25499;53.958;10.970;2023-07-13T15:36:08;101290.38;;;18.77;100.00
39823;BME280;25499;53.958;10.970;2023-07-13T15:38:36;101294.16;;;18.99;100.00
39823;BME280;25499;53.958;10.970;2023-07-13T15:41:15;101282.38;;;19.11;100.00
39823;BME280;25499;53.958;10.970;2023-07-13T15:43:57;101272.59;;;19.15;100.00
39823;BME280;25499;53.958;10.970;2023-07-13T15:46:29;101273.78;;;19.05;100.00
39823;BME280;25499;53.958;10.970;2023-07-13T15:49:01;101275.09;;;19.19;100.00
39823;BME280;25499;53.958;10.970;2023-07-13T15:51:31;101276.41;;;19.05;100.00
39823;BME280;25499;53.958;10.970;2023-07-13T15:54:04;101277.00;;;19.43;100.00
39823;BME280;25499;53.958;10.970;2023-07-13T15:56:37;101278.03;;;19.65;100.00
39823;BME280;25499;53.958;10.970;2023-07-13T15:59:10;101265.28;;;19.80;100.00
39823;BME280;25499;53.958;10.970;2023-07-13T16:01:40;101257.06;;;19.87;100.00
39823;BME280;25499;53.958;10.970;2023-07-13T16:04:12;101251.59;;;19.93;100.00
39823;BME280;25499;53.958;10.970;2023-07-13T16:06:44;101237.94;;;19.81;100.00
39823;BME280;25499;53.958;10.970;2023-07-13T16:09:19;101235.63;;;19.70;100.00
39823;BME280;25499;53.958;10.970;2023-07-13T16:11:54;101232.41;;;19.60;100.00
39823;BME280;25499;53.958;10.970;2023-07-13T16:14:28;101226.97;;;19.65;100.00
39823;BME280;25499;53.958;10.970;2023-07-13T16:17:13;101220.47;;;19.48;97.91
39823;BME280;25499;53.958;10.970;2023-07-13T16:19:46;101223.72;;;19.56;98.13
39823;BME280;25499;53.958;10.970;2023-07-13T16:22:28;101219.81;;;19.68;96.50
39823;BME280;25499;53.958;10.970;2023-07-13T16:25:01;101217.00;;;19.74;93.73
39823;BME280;25499;53.958;10.970;2023-07-13T16:27:40;101192.31;;;19.75;87.87
39823;BME280;25499;53.958;10.970;2023-07-13T16:30:17;101174.84;;;19.70;84.64
39823;BME280;25499;53.958;10.970;2023-07-13T16:32:48;101157.72;;;19.55;81.35
39823;BME280;25499;53.958;10.970;2023-07-13T16:35:37;101163.34;;;19.46;81.03
39823;BME280;25499;53.958;10.970;2023-07-13T16:38:29;101164.38;;;19.42;80.43
39823;BME280;25499;53.958;10.970;2023-07-13T16:40:57;101181.06;;;19.42;80.54
39823;BME280;25499;53.958;10.970;2023-07-13T16:43:25;101182.78;;;19.43;80.44
39823;BME280;25499;53.958;10.970;2023-07-13T16:45:53;101187.78;;;19.52;80.69
39823;BME280;25499;53.958;10.970;2023-07-13T16:48:26;101187.72;;;19.54;80.17
39823;BME280;25499;53.958;10.970;2023-07-13T16:50:56;101193.50;;;19.65;80.58
39823;BME280;25499;53.958;10.970;2023-07-13T16:53:27;101202.06;;;19.72;80.75
39823;BME280;25499;53.958;10.970;2023-07-13T16:55:56;101186.63;;;19.60;79.84
39823;BME280;25499;53.958;10.970;2023-07-13T16:58:28;101182.38;;;19.55;79.01
39823;BME280;25499;53.958;10.970;2023-07-13T17:00:56;101196.06;;;19.67;78.94
39823;BME280;25499;53.958;10.970;2023-07-13T17:03:24;101176.72;;;19.66;77.79
39823;BME280;25499;53.958;10.970;2023-07-13T17:05:53;101184.75;;;19.63;77.49
39823;BME280;25499;53.958;10.970;2023-07-13T17:08:30;101179.69;;;19.57;77.06
39823;BME280;25499;53.958;10.970;2023-07-13T17:10:59;101178.16;;;19.50;77.08
39823;BME280;25499;53.958;10.970;2023-07-13T17:14:42;101184.34;;;19.22;77.70
39823;BME280;25499;53.958;10.970;2023-07-13T17:18:05;101202.66;;;19.28;79.29
